Aérodrome :
LOGIN :

S'inscrire | Disclaimer

   EN    FR    IT 

 










Légende :    VFR   VFR Marginal   IFR   IFR Intensif   IFR Très Intensif
Visi : 
Plafond : 
>= 8 km
>= 3000ft
5 à 8 km
1000 à 3000 ft
1500m à 5 km
500 à 1000 ft
800 à 1500m
200 à 500 ft
< 800m
< 200 ft
Symboles :   Orages  Brouillard  Fortes neiges  Fortes précipitations  Vent > 20 kt
SIGMETs :   Divers  Orages  Givrage  Turbulence  Onde Orograph.  Cendres Volcan.






- Altitude de l'aérodrome : 1548 ft


LKNA - Náměšť Air Base

DERNIER METAR :
  • 270300Z VRB02KT 0500 R31/0600N FZFG VV002 M03/M04 Q1017 RMK RED

METARs EXPIRÉS :
  • 270200Z 00000KT 0500 R31/0800N FZFG VV002 M03/M04 Q1018 RMK RED
  • 270100Z 20003KT 0200 R31/0500 FZFG VV002 M03/M04 Q1018 RMK RED

TAF TAF LKNA
Valide du 27 à 00h jusqu'au 28 à 00h UTC


262300Z 2700/2800 18004KT 0400 FZFG VV002
TEMPO 2700/2709 0100 FZDZ FZFG VV001
PROB30
TEMPO 2710/2716 1500 BR OVC005
TEMPO 2718/2800 15008KT 0200 FZDZ FZFG VV001



MET'MAP, la Météo Aéronautique d'un coup d'oeil ! - Copyright ORBIFLY Décembre 2007 - Disclaimer

ORBIFLY MET'MAP TEAM :

Programmation & Développement : Alexandra Zaïnal
Sur une idée originale de : Baudouin d'Aumeries
Assistance à la programmation : Marc-Olivier Méhu
Soutien technique & logistique : Manuel Goepfert

Contact : metmap@orbifly.com




SOURCES & CREDITS :

   NOAA